sensor_id;sensor_type;location;lat;lon;timestamp;P1;durP1;ratioP1;P2;durP2;ratioP2
3979;SDS011;2004;52.452;13.120;2023-04-23T00:00:57;14.13;;;8.97;;
3979;SDS011;2004;52.452;13.120;2023-04-23T00:08:52;12.83;;;8.73;;
3979;SDS011;2004;52.452;13.120;2023-04-23T00:16:43;12.17;;;7.97;;
3979;SDS011;2004;52.452;13.120;2023-04-23T00:24:34;11.87;;;8.03;;
3979;SDS011;2004;52.452;13.120;2023-04-23T00:32:27;20.10;;;8.17;;
3979;SDS011;2004;52.452;13.120;2023-04-23T00:40:18;8.57;;;7.10;;
3979;SDS011;2004;52.452;13.120;2023-04-23T00:48:09;15.33;;;7.63;;
3979;SDS011;2004;52.452;13.120;2023-04-23T00:56:01;15.00;;;7.83;;
3979;SDS011;2004;52.452;13.120;2023-04-23T01:03:54;12.80;;;8.10;;
3979;SDS011;2004;52.452;13.120;2023-04-23T01:11:45;12.93;;;9.23;;
3979;SDS011;2004;52.452;13.120;2023-04-23T01:19:38;13.40;;;8.57;;
3979;SDS011;2004;52.452;13.120;2023-04-23T01:27:28;13.30;;;7.77;;
3979;SDS011;2004;52.452;13.120;2023-04-23T01:35:20;13.80;;;8.80;;
3979;SDS011;2004;52.452;13.120;2023-04-23T01:43:10;12.40;;;8.30;;
3979;SDS011;2004;52.452;13.120;2023-04-23T01:51:01;12.20;;;8.00;;
3979;SDS011;2004;52.452;13.120;2023-04-23T01:58:53;14.10;;;8.23;;
3979;SDS011;2004;52.452;13.120;2023-04-23T02:06:46;11.03;;;7.73;;
3979;SDS011;2004;52.452;13.120;2023-04-23T02:14:38;13.40;;;7.50;;
3979;SDS011;2004;52.452;13.120;2023-04-23T02:22:29;13.83;;;7.70;;
3979;SDS011;2004;52.452;13.120;2023-04-23T02:30:20;11.67;;;7.67;;
3979;SDS011;2004;52.452;13.120;2023-04-23T02:38:11;18.20;;;8.00;;
3979;SDS011;2004;52.452;13.120;2023-04-23T02:46:02;9.87;;;7.60;;
3979;SDS011;2004;52.452;13.120;2023-04-23T02:53:58;12.70;;;7.83;;
3979;SDS011;2004;52.452;13.120;2023-04-23T03:01:49;11.27;;;7.67;;
3979;SDS011;2004;52.452;13.120;2023-04-23T03:09:41;13.80;;;8.70;;
3979;SDS011;2004;52.452;13.120;2023-04-23T03:17:32;12.90;;;8.90;;
3979;SDS011;2004;52.452;13.120;2023-04-23T03:25:29;10.07;;;8.10;;
3979;SDS011;2004;52.452;13.120;2023-04-23T03:33:19;7.60;;;6.90;;
3979;SDS011;2004;52.452;13.120;2023-04-23T03:41:10;9.53;;;8.10;;
3979;SDS011;2004;52.452;13.120;2023-04-23T03:49:01;9.53;;;7.73;;
3979;SDS011;2004;52.452;13.120;2023-04-23T03:56:51;9.70;;;6.90;;
3979;SDS011;2004;52.452;13.120;2023-04-23T04:04:42;9.40;;;7.43;;
3979;SDS011;2004;52.452;13.120;2023-04-23T04:12:34;10.53;;;7.50;;
3979;SDS011;2004;52.452;13.120;2023-04-23T04:20:25;11.43;;;6.80;;
3979;SDS011;2004;52.452;13.120;2023-04-23T04:28:17;9.17;;;7.37;;
3979;SDS011;2004;52.452;13.120;2023-04-23T04:36:09;11.10;;;7.80;;
3979;SDS011;2004;52.452;13.120;2023-04-23T04:43:59;18.23;;;8.40;;
3979;SDS011;2004;52.452;13.120;2023-04-23T04:51:50;11.90;;;8.87;;
3979;SDS011;2004;52.452;13.120;2023-04-23T04:59:40;13.67;;;9.17;;
3979;SDS011;2004;52.452;13.120;2023-04-23T05:07:31;10.40;;;8.60;;
3979;SDS011;2004;52.452;13.120;2023-04-23T05:15:21;11.83;;;8.40;;
3979;SDS011;2004;52.452;13.120;2023-04-23T05:23:12;11.97;;;8.33;;
3979;SDS011;2004;52.452;13.120;2023-04-23T05:31:02;9.30;;;8.00;;
3979;SDS011;2004;52.452;13.120;2023-04-23T05:38:53;12.00;;;8.90;;
3979;SDS011;2004;52.452;13.120;2023-04-23T05:46:44;9.20;;;7.40;;
3979;SDS011;2004;52.452;13.120;2023-04-23T05:54:35;9.43;;;7.83;;
3979;SDS011;2004;52.452;13.120;2023-04-23T06:02:25;9.40;;;7.20;;
3979;SDS011;2004;52.452;13.120;2023-04-23T06:10:18;9.47;;;6.40;;
3979;SDS011;2004;52.452;13.120;2023-04-23T06:18:08;9.63;;;6.77;;
3979;SDS011;2004;52.452;13.120;2023-04-23T06:26:00;8.80;;;6.53;;
3979;SDS011;2004;52.452;13.120;2023-04-23T06:33:50;15.80;;;7.53;;
3979;SDS011;2004;52.452;13.120;2023-04-23T06:41:41;9.40;;;7.40;;
3979;SDS011;2004;52.452;13.120;2023-04-23T06:49:32;11.40;;;6.90;;
3979;SDS011;2004;52.452;13.120;2023-04-23T06:57:23;8.10;;;7.00;;
3979;SDS011;2004;52.452;13.120;2023-04-23T07:05:13;17.83;;;7.00;;
3979;SDS011;2004;52.452;13.120;2023-04-23T07:13:04;13.73;;;8.23;;
3979;SDS011;2004;52.452;13.120;2023-04-23T07:20:54;11.77;;;7.03;;
3979;SDS011;2004;52.452;13.120;2023-04-23T07:28:45;11.07;;;7.80;;
3979;SDS011;2004;52.452;13.120;2023-04-23T07:36:37;8.43;;;6.90;;
3979;SDS011;2004;52.452;13.120;2023-04-23T07:44:27;8.67;;;7.77;;
3979;SDS011;2004;52.452;13.120;2023-04-23T07:52:18;13.83;;;6.93;;
3979;SDS011;2004;52.452;13.120;2023-04-23T08:00:09;12.80;;;8.77;;
3979;SDS011;2004;52.452;13.120;2023-04-23T08:08:00;13.57;;;8.80;;
3979;SDS011;2004;52.452;13.120;2023-04-23T08:15:50;16.27;;;8.50;;
3979;SDS011;2004;52.452;13.120;2023-04-23T08:23:41;9.87;;;8.07;;
3979;SDS011;2004;52.452;13.120;2023-04-23T08:31:31;9.60;;;8.03;;
3979;SDS011;2004;52.452;13.120;2023-04-23T08:39:22;9.80;;;8.80;;
3979;SDS011;2004;52.452;13.120;2023-04-23T08:47:13;11.70;;;8.87;;
3979;SDS011;2004;52.452;13.120;2023-04-23T08:55:07;9.13;;;8.23;;
3979;SDS011;2004;52.452;13.120;2023-04-23T09:02:59;14.23;;;9.57;;
3979;SDS011;2004;52.452;13.120;2023-04-23T09:10:50;11.37;;;8.00;;
3979;SDS011;2004;52.452;13.120;2023-04-23T09:18:44;5.07;;;4.53;;
3979;SDS011;2004;52.452;13.120;2023-04-23T09:26:35;6.77;;;5.57;;
3979;SDS011;2004;52.452;13.120;2023-04-23T09:34:37;7.17;;;6.07;;
3979;SDS011;2004;52.452;13.120;2023-04-23T09:42:28;8.20;;;7.30;;
3979;SDS011;2004;52.452;13.120;2023-04-23T09:58:25;12.10;;;9.40;;
3979;SDS011;2004;52.452;13.120;2023-04-23T10:06:16;17.60;;;11.07;;
3979;SDS011;2004;52.452;13.120;2023-04-23T10:14:07;18.33;;;11.77;;
3979;SDS011;2004;52.452;13.120;2023-04-23T10:22:00;16.07;;;12.77;;
3979;SDS011;2004;52.452;13.120;2023-04-23T10:29:57;16.97;;;13.20;;
3979;SDS011;2004;52.452;13.120;2023-04-23T10:37:49;22.30;;;13.63;;
3979;SDS011;2004;52.452;13.120;2023-04-23T10:45:40;21.57;;;14.90;;
3979;SDS011;2004;52.452;13.120;2023-04-23T10:53:32;22.33;;;14.10;;
3979;SDS011;2004;52.452;13.120;2023-04-23T11:01:26;26.80;;;17.60;;
3979;SDS011;2004;52.452;13.120;2023-04-23T11:17:23;12.83;;;9.77;;
3979;SDS011;2004;52.452;13.120;2023-04-23T11:25:21;11.57;;;8.90;;
3979;SDS011;2004;52.452;13.120;2023-04-23T11:33:13;8.17;;;6.40;;
3979;SDS011;2004;52.452;13.120;2023-04-23T11:41:03;7.87;;;4.43;;
3979;SDS011;2004;52.452;13.120;2023-04-23T11:48:54;4.10;;;3.80;;
3979;SDS011;2004;52.452;13.120;2023-04-23T11:56:46;6.27;;;3.83;;
3979;SDS011;2004;52.452;13.120;2023-04-23T12:04:37;4.70;;;4.13;;
3979;SDS011;2004;52.452;13.120;2023-04-23T12:12:34;4.87;;;4.40;;
3979;SDS011;2004;52.452;13.120;2023-04-23T12:20:25;6.00;;;3.93;;
3979;SDS011;2004;52.452;13.120;2023-04-23T12:28:15;3.70;;;3.30;;
3979;SDS011;2004;52.452;13.120;2023-04-23T12:36:14;5.20;;;3.90;;
3979;SDS011;2004;52.452;13.120;2023-04-23T12:44:05;5.27;;;3.57;;
3979;SDS011;2004;52.452;13.120;2023-04-23T12:51:56;5.40;;;3.50;;
3979;SDS011;2004;52.452;13.120;2023-04-23T12:59:49;4.37;;;3.40;;
3979;SDS011;2004;52.452;13.120;2023-04-23T13:07:43;4.57;;;3.80;;
3979;SDS011;2004;52.452;13.120;2023-04-23T13:15:34;5.50;;;4.77;;
3979;SDS011;2004;52.452;13.120;2023-04-23T13:23:25;4.87;;;3.57;;
3979;SDS011;2004;52.452;13.120;2023-04-23T13:31:15;3.10;;;2.90;;
3979;SDS011;2004;52.452;13.120;2023-04-23T13:39:06;2.93;;;2.73;;
3979;SDS011;2004;52.452;13.120;2023-04-23T13:46:57;3.43;;;2.40;;
3979;SDS011;2004;52.452;13.120;2023-04-23T13:54:51;2.40;;;2.20;;
3979;SDS011;2004;52.452;13.120;2023-04-23T14:02:43;3.17;;;2.57;;
3979;SDS011;2004;52.452;13.120;2023-04-23T14:10:34;1.90;;;1.80;;
3979;SDS011;2004;52.452;13.120;2023-04-23T14:18:25;3.77;;;1.60;;
3979;SDS011;2004;52.452;13.120;2023-04-23T14:26:26;1.90;;;1.70;;
3979;SDS011;2004;52.452;13.120;2023-04-23T14:34:21;1.80;;;1.70;;
3979;SDS011;2004;52.452;13.120;2023-04-23T14:42:12;1.43;;;1.33;;
3979;SDS011;2004;52.452;13.120;2023-04-23T14:50:04;1.43;;;1.33;;
3979;SDS011;2004;52.452;13.120;2023-04-23T14:57:55;1.40;;;1.30;;
3979;SDS011;2004;52.452;13.120;2023-04-23T15:05:45;3.47;;;1.80;;
3979;SDS011;2004;52.452;13.120;2023-04-23T15:13:37;1.70;;;1.60;;
3979;SDS011;2004;52.452;13.120;2023-04-23T15:21:31;1.70;;;1.60;;
3979;SDS011;2004;52.452;13.120;2023-04-23T15:29:21;1.63;;;1.53;;
3979;SDS011;2004;52.452;13.120;2023-04-23T15:37:13;1.60;;;1.30;;
3979;SDS011;2004;52.452;13.120;2023-04-23T15:45:04;1.70;;;1.60;;
3979;SDS011;2004;52.452;13.120;2023-04-23T15:52:58;1.03;;;1.03;;
3979;SDS011;2004;52.452;13.120;2023-04-23T16:00:50;1.47;;;1.37;;
3979;SDS011;2004;52.452;13.120;2023-04-23T16:08:42;1.47;;;1.37;;
3979;SDS011;2004;52.452;13.120;2023-04-23T16:16:32;4.13;;;1.80;;
3979;SDS011;2004;52.452;13.120;2023-04-23T16:24:23;1.90;;;1.43;;
3979;SDS011;2004;52.452;13.120;2023-04-23T16:32:14;1.43;;;1.37;;
3979;SDS011;2004;52.452;13.120;2023-04-23T16:40:05;3.67;;;1.40;;
3979;SDS011;2004;52.452;13.120;2023-04-23T16:47:56;1.90;;;1.80;;
3979;SDS011;2004;52.452;13.120;2023-04-23T16:55:47;6.80;;;2.73;;
3979;SDS011;2004;52.452;13.120;2023-04-23T17:03:37;2.70;;;2.50;;
3979;SDS011;2004;52.452;13.120;2023-04-23T17:11:28;3.83;;;1.67;;
3979;SDS011;2004;52.452;13.120;2023-04-23T17:19:21;4.60;;;2.10;;
3979;SDS011;2004;52.452;13.120;2023-04-23T17:27:11;3.70;;;3.10;;
3979;SDS011;2004;52.452;13.120;2023-04-23T17:35:02;5.33;;;2.30;;
3979;SDS011;2004;52.452;13.120;2023-04-23T17:42:52;1.40;;;1.30;;
3979;SDS011;2004;52.452;13.120;2023-04-23T17:50:43;2.63;;;2.40;;
3979;SDS011;2004;52.452;13.120;2023-04-23T17:58:34;4.27;;;3.30;;
3979;SDS011;2004;52.452;13.120;2023-04-23T18:06:24;48.53;;;32.07;;
3979;SDS011;2004;52.452;13.120;2023-04-23T18:14:16;55.33;;;35.47;;
3979;SDS011;2004;52.452;13.120;2023-04-23T18:22:08;10.63;;;7.27;;
3979;SDS011;2004;52.452;13.120;2023-04-23T18:29:58;4.27;;;2.80;;
3979;SDS011;2004;52.452;13.120;2023-04-23T18:37:53;3.17;;;1.83;;
3979;SDS011;2004;52.452;13.120;2023-04-23T18:45:51;3.30;;;2.97;;
3979;SDS011;2004;52.452;13.120;2023-04-23T18:53:41;2.80;;;2.30;;
3979;SDS011;2004;52.452;13.120;2023-04-23T19:01:32;3.50;;;2.60;;
3979;SDS011;2004;52.452;13.120;2023-04-23T19:09:23;3.57;;;2.80;;
3979;SDS011;2004;52.452;13.120;2023-04-23T19:17:13;3.27;;;2.97;;
3979;SDS011;2004;52.452;13.120;2023-04-23T19:25:04;8.00;;;3.00;;
3979;SDS011;2004;52.452;13.120;2023-04-23T19:32:55;4.13;;;3.13;;
3979;SDS011;2004;52.452;13.120;2023-04-23T19:40:46;10.57;;;3.80;;
3979;SDS011;2004;52.452;13.120;2023-04-23T19:48:38;6.40;;;4.40;;
3979;SDS011;2004;52.452;13.120;2023-04-23T19:56:29;9.73;;;6.07;;
3979;SDS011;2004;52.452;13.120;2023-04-23T20:04:20;12.50;;;7.40;;
3979;SDS011;2004;52.452;13.120;2023-04-23T20:12:11;10.87;;;5.80;;
3979;SDS011;2004;52.452;13.120;2023-04-23T20:20:03;5.80;;;4.67;;
3979;SDS011;2004;52.452;13.120;2023-04-23T20:27:55;5.13;;;4.30;;
3979;SDS011;2004;52.452;13.120;2023-04-23T20:35:46;4.90;;;4.40;;
3979;SDS011;2004;52.452;13.120;2023-04-23T20:43:37;7.30;;;4.10;;
3979;SDS011;2004;52.452;13.120;2023-04-23T20:51:28;7.27;;;4.40;;
3979;SDS011;2004;52.452;13.120;2023-04-23T20:59:23;5.00;;;4.37;;
3979;SDS011;2004;52.452;13.120;2023-04-23T21:07:13;8.20;;;4.83;;
3979;SDS011;2004;52.452;13.120;2023-04-23T21:15:04;7.00;;;5.90;;
3979;SDS011;2004;52.452;13.120;2023-04-23T21:22:55;5.50;;;4.90;;
3979;SDS011;2004;52.452;13.120;2023-04-23T21:38:40;5.53;;;4.87;;
3979;SDS011;2004;52.452;13.120;2023-04-23T21:46:30;8.90;;;4.57;;
3979;SDS011;2004;52.452;13.120;2023-04-23T21:54:21;7.93;;;5.20;;
3979;SDS011;2004;52.452;13.120;2023-04-23T22:02:13;7.43;;;4.47;;
3979;SDS011;2004;52.452;13.120;2023-04-23T22:10:10;5.55;;;4.97;;
3979;SDS011;2004;52.452;13.120;2023-04-23T22:18:02;5.67;;;5.10;;
3979;SDS011;2004;52.452;13.120;2023-04-23T22:25:52;7.90;;;4.20;;
3979;SDS011;2004;52.452;13.120;2023-04-23T22:33:43;8.40;;;5.03;;
3979;SDS011;2004;52.452;13.120;2023-04-23T22:41:33;5.03;;;4.60;;
3979;SDS011;2004;52.452;13.120;2023-04-23T22:49:27;4.70;;;4.30;;
3979;SDS011;2004;52.452;13.120;2023-04-23T22:57:18;5.87;;;4.53;;
3979;SDS011;2004;52.452;13.120;2023-04-23T23:05:09;7.40;;;5.30;;
3979;SDS011;2004;52.452;13.120;2023-04-23T23:13:00;4.90;;;4.43;;
3979;SDS011;2004;52.452;13.120;2023-04-23T23:20:51;8.03;;;4.53;;
3979;SDS011;2004;52.452;13.120;2023-04-23T23:28:41;6.57;;;5.17;;
3979;SDS011;2004;52.452;13.120;2023-04-23T23:36:32;5.53;;;5.03;;
3979;SDS011;2004;52.452;13.120;2023-04-23T23:44:23;7.67;;;4.80;;
3979;SDS011;2004;52.452;13.120;2023-04-23T23:52:13;4.93;;;4.47;;
